Estación de Calama Rural INIA

Ultimos registro cada 15 minutos 85
Estación Fecha / Hora Temperatura Humedad Lluvia Velocidad Dirección Radiación Presion
85 Calama Rural INIA 03-09-2026 21:00 12,6 26,5 0 0 0 8,7 782,4
84 Calama Rural INIA 03-09-2026 20:45 14,1 24,3 0 0 0 7,9 782,2
83 Calama Rural INIA 03-09-2026 20:30 14,9 22,2 0 0 0 8,2 782,2
82 Calama Rural INIA 03-09-2026 20:15 15,7 21 0 0,2 254 7,9 782,1
81 Calama Rural INIA 03-09-2026 20:00 16,6 19,4 0 0,6 244 8 781,8
80 Calama Rural INIA 03-09-2026 19:45 16,9 18,8 0 0,9 245 8,1 781,7
79 Calama Rural INIA 03-09-2026 19:30 16,9 17,3 0 0,6 241 7,7 781,4
78 Calama Rural INIA 03-09-2026 19:15 17,1 11,6 0 0 0 7,8 781,2
77 Calama Rural INIA 03-09-2026 19:00 18 10,5 0 0 0 7,7 781
76 Calama Rural INIA 03-09-2026 18:45 18,8 9,9 0 0 0 8,5 781
75 Calama Rural INIA 03-09-2026 18:30 19,8 9,2 0 0 307 12,6 780,8
74 Calama Rural INIA 03-09-2026 18:15 20,9 8,5 0 0,1 263 18,4 780,8
73 Calama Rural INIA 03-09-2026 18:00 21,7 9 0 1,5 247 22,3 780,7
72 Calama Rural INIA 03-09-2026 17:45 22,2 8,2 0 0,7 250 26,3 780,7
71 Calama Rural INIA 03-09-2026 17:30 23,4 8,8 0 0,9 249 46,2 780,7
70 Calama Rural INIA 03-09-2026 17:15 24,9 7,6 0 0,7 241 176,2 780,6
69 Calama Rural INIA 03-09-2026 17:00 25,4 7,3 0 1,3 254 235,8 780,6
68 Calama Rural INIA 03-09-2026 16:45 25,7 6,7 0 0,8 250 300,6 780,6
67 Calama Rural INIA 03-09-2026 16:30 25,6 7,6 0 2,1 242 346,5 780,6
66 Calama Rural INIA 03-09-2026 16:15 25,5 7,7 0 2,1 243 389,7 780,6
65 Calama Rural INIA 03-09-2026 16:00 26,6 7,5 0 1,7 242 435,4 780,6
64 Calama Rural INIA 03-09-2026 15:45 26,5 7,6 0 1,2 253 473,6 780,6
63 Calama Rural INIA 03-09-2026 15:30 26,3 8,6 0 1,2 239 512,2 780,8
62 Calama Rural INIA 03-09-2026 15:15 25,9 8,7 0 2,2 242 549,7 781
61 Calama Rural INIA 03-09-2026 15:00 27,1 7,5 0 1,4 236 584,8 781
60 Calama Rural INIA 03-09-2026 14:45 26,4 7 0 1,5 243 616 781,1
59 Calama Rural INIA 03-09-2026 14:30 25,6 9,4 0 2,2 238 641,1 781,3
58 Calama Rural INIA 03-09-2026 14:15 25,9 7,4 0 2,2 242 666 781,5
57 Calama Rural INIA 03-09-2026 14:00 25,8 8,3 0 2,5 245 688 781,7
56 Calama Rural INIA 03-09-2026 13:45 26,6 6,8 0 1 242 706,8 781,7
55 Calama Rural INIA 03-09-2026 13:30 25,7 8,9 0 2,8 244 719,5 781,8
54 Calama Rural INIA 03-09-2026 13:15 26 7 0 1,7 240 730,2 781,9
53 Calama Rural INIA 03-09-2026 13:00 25,9 7,2 0 2,3 236 736,1 782,2
52 Calama Rural INIA 03-09-2026 12:45 26,1 9,1 0 1,4 233 738,5 782,3
51 Calama Rural INIA 03-09-2026 12:30 27 4,9 0 0,1 243 744,8 782,5
50 Calama Rural INIA 03-09-2026 12:15 28,3 5,3 0 0 0 742,9 782,6
49 Calama Rural INIA 03-09-2026 12:00 26,6 8,6 0 0,1 53 733,2 782,8
48 Calama Rural INIA 03-09-2026 11:45 25,4 6 0 0,1 82 722,9 783,1
47 Calama Rural INIA 03-09-2026 11:30 24,5 5,8 0 0,6 72 707,2 783,1
46 Calama Rural INIA 03-09-2026 11:15 23,9 11,3 0 0,3 81 687,9 783,3
45 Calama Rural INIA 03-09-2026 11:00 24,3 7,6 0 0 0 669,4 783,3
44 Calama Rural INIA 03-09-2026 10:45 22,4 8,5 0 0,6 53 645,4 783,5
43 Calama Rural INIA 03-09-2026 10:30 21,2 9,7 0 1,4 68 616,4 783,7
42 Calama Rural INIA 03-09-2026 10:15 20 9,8 0 2,7 80 584,2 783,6
41 Calama Rural INIA 03-09-2026 10:00 18,8 10,3 0 2,9 67 550,3 783,6
40 Calama Rural INIA 03-09-2026 09:45 17,6 10,9 0 3,6 77 513,8 783,7
39 Calama Rural INIA 03-09-2026 09:30 16,6 10,9 0 3,9 67 474,2 783,8
38 Calama Rural INIA 03-09-2026 09:15 15,6 11,8 0 4 71 432,2 783,7
37 Calama Rural INIA 03-09-2026 09:00 14,6 12,4 0 3,7 71 388,8 783,7
36 Calama Rural INIA 03-09-2026 08:45 13,4 14,4 0 3,6 68 343,5 783,6
35 Calama Rural INIA 03-09-2026 08:30 12,2 13,6 0 3,8 66 296,6 783,6
34 Calama Rural INIA 03-09-2026 08:15 10,8 16,3 0 3,2 57 249,7 783,4
33 Calama Rural INIA 03-09-2026 08:00 9,6 16,4 0 2,9 64 202,7 783,4
32 Calama Rural INIA 03-09-2026 07:45 7,7 16,8 0 3,9 73 158,2 783,5
31 Calama Rural INIA 03-09-2026 07:30 6,8 19,5 0 3,5 67 112,3 783,4
30 Calama Rural INIA 03-09-2026 07:15 5,9 21,7 0 3,2 62 55,8 783,2
29 Calama Rural INIA 03-09-2026 07:00 5,2 22,5 0 3,2 61 16 782,8
28 Calama Rural INIA 03-09-2026 06:45 4,2 25,2 0 3,2 69 9,4 782,8
27 Calama Rural INIA 03-09-2026 06:30 4,6 25,9 0 3,7 76 8 782,6
26 Calama Rural INIA 03-09-2026 06:15 4 26,1 0 3,8 77 8 782,6
25 Calama Rural INIA 03-09-2026 06:00 3,4 27,1 0 3,8 82 8 782,4
24 Calama Rural INIA 03-09-2026 05:45 3,7 29,1 0 3,6 81 8,2 782,5
23 Calama Rural INIA 03-09-2026 05:30 4,8 27,5 0 3 80 8,3 782,4
22 Calama Rural INIA 03-09-2026 05:15 5,3 25,6 0 2,8 76 7,9 782,5
21 Calama Rural INIA 03-09-2026 05:00 5,1 26,4 0 2 80 8 782,4
20 Calama Rural INIA 03-09-2026 04:45 6,8 27 0 2,7 77 8 782,4
19 Calama Rural INIA 03-09-2026 04:30 7,3 23,2 0 2,1 66 7,9 782,4
18 Calama Rural INIA 03-09-2026 04:15 7,5 25,3 0 2 62 7,9 782,5
17 Calama Rural INIA 03-09-2026 04:00 8,1 24,4 0 2 62 8 782,7
16 Calama Rural INIA 03-09-2026 03:45 8,2 25,4 0 1,7 59 8 782,7
15 Calama Rural INIA 03-09-2026 03:30 8,1 25,8 0 2,2 65 7,8 782,7
14 Calama Rural INIA 03-09-2026 03:15 8,4 26 0 1,9 63 8,2 782,7
13 Calama Rural INIA 03-09-2026 03:00 7,8 26,2 0 0,5 61 7,9 782,8
12 Calama Rural INIA 03-09-2026 02:45 7,4 29,2 0 0 0 7,9 782,8
11 Calama Rural INIA 03-09-2026 02:30 7,6 28,4 0 0 71 7,8 782,7
10 Calama Rural INIA 03-09-2026 02:15 8,1 27,4 0 0,5 46 7,9 783
9 Calama Rural INIA 03-09-2026 02:00 8,6 27,1 0 0,8 53 7,9 783
8 Calama Rural INIA 03-09-2026 01:45 8,9 27,6 0 1,1 54 7,8 783,1
7 Calama Rural INIA 03-09-2026 01:30 8,9 28,3 0 1,3 54 7,9 783,3
6 Calama Rural INIA 03-09-2026 01:15 8,4 29 0 1,8 62 7,9 783,3
5 Calama Rural INIA 03-09-2026 01:00 8 29 0 2,9 70 8,1 783,2
4 Calama Rural INIA 03-09-2026 00:45 8,4 30,2 0 3,1 75 8,1 783,3
3 Calama Rural INIA 03-09-2026 00:30 9 28,4 0 3,2 78 7,9 783,3
2 Calama Rural INIA 03-09-2026 00:15 9 28,5 0 2,8 75 8,4 783,4
1 Calama Rural INIA 03-09-2026 00:00 9,3 27,4 0 2,7 80 8,5 783,3